sensor_id;sensor_type;location;lat;lon;timestamp;P1;durP1;ratioP1;P2;durP2;ratioP2
5569;SDS011;2808;51.240;6.794;2024-03-25T00:00:19;20.60;;;3.23;;
5569;SDS011;2808;51.240;6.794;2024-03-25T00:02:50;23.30;;;3.77;;
5569;SDS011;2808;51.240;6.794;2024-03-25T00:05:22;25.83;;;3.30;;
5569;SDS011;2808;51.240;6.794;2024-03-25T00:07:51;36.90;;;3.97;;
5569;SDS011;2808;51.240;6.794;2024-03-25T00:10:29;19.53;;;2.77;;
5569;SDS011;2808;51.240;6.794;2024-03-25T00:13:00;22.67;;;3.00;;
5569;SDS011;2808;51.240;6.794;2024-03-25T00:15:33;23.63;;;3.70;;
5569;SDS011;2808;51.240;6.794;2024-03-25T00:18:07;22.60;;;3.07;;
5569;SDS011;2808;51.240;6.794;2024-03-25T00:41:06;27.90;;;3.67;;
5569;SDS011;2808;51.240;6.794;2024-03-25T00:43:36;23.73;;;3.90;;
5569;SDS011;2808;51.240;6.794;2024-03-25T00:46:06;22.83;;;3.90;;
5569;SDS011;2808;51.240;6.794;2024-03-25T00:48:33;18.30;;;3.50;;
5569;SDS011;2808;51.240;6.794;2024-03-25T00:51:02;24.27;;;3.90;;
5569;SDS011;2808;51.240;6.794;2024-03-25T00:53:32;24.30;;;3.97;;
5569;SDS011;2808;51.240;6.794;2024-03-25T00:56:02;32.23;;;4.50;;
5569;SDS011;2808;51.240;6.794;2024-03-25T00:58:31;20.60;;;3.33;;
5569;SDS011;2808;51.240;6.794;2024-03-25T01:01:01;19.73;;;3.93;;
5569;SDS011;2808;51.240;6.794;2024-03-25T01:03:30;26.03;;;4.50;;
5569;SDS011;2808;51.240;6.794;2024-03-25T01:05:57;29.23;;;4.50;;
5569;SDS011;2808;51.240;6.794;2024-03-25T01:08:27;18.37;;;4.90;;
5569;SDS011;2808;51.240;6.794;2024-03-25T01:10:57;33.33;;;4.93;;
5569;SDS011;2808;51.240;6.794;2024-03-25T01:13:25;17.87;;;4.03;;
5569;SDS011;2808;51.240;6.794;2024-03-25T01:15:58;30.73;;;5.07;;
5569;SDS011;2808;51.240;6.794;2024-03-25T01:18:29;22.17;;;4.20;;
5569;SDS011;2808;51.240;6.794;2024-03-25T01:21:02;17.20;;;4.17;;
5569;SDS011;2808;51.240;6.794;2024-03-25T01:23:29;22.40;;;4.10;;
5569;SDS011;2808;51.240;6.794;2024-03-25T01:25:59;23.83;;;4.47;;
5569;SDS011;2808;51.240;6.794;2024-03-25T01:28:30;26.50;;;5.20;;
5569;SDS011;2808;51.240;6.794;2024-03-25T01:31:00;29.63;;;4.97;;
5569;SDS011;2808;51.240;6.794;2024-03-25T01:33:32;21.63;;;4.77;;
5569;SDS011;2808;51.240;6.794;2024-03-25T01:36:02;18.83;;;3.80;;
5569;SDS011;2808;51.240;6.794;2024-03-25T01:38:32;24.23;;;5.07;;
5569;SDS011;2808;51.240;6.794;2024-03-25T01:41:08;21.27;;;5.53;;
5569;SDS011;2808;51.240;6.794;2024-03-25T01:43:37;26.73;;;4.23;;
5569;SDS011;2808;51.240;6.794;2024-03-25T01:46:07;18.57;;;4.40;;
5569;SDS011;2808;51.240;6.794;2024-03-25T01:48:34;17.87;;;4.20;;
5569;SDS011;2808;51.240;6.794;2024-03-25T01:51:02;19.73;;;4.50;;
5569;SDS011;2808;51.240;6.794;2024-03-25T01:53:29;26.63;;;4.50;;
5569;SDS011;2808;51.240;6.794;2024-03-25T01:55:58;23.73;;;4.30;;
5569;SDS011;2808;51.240;6.794;2024-03-25T01:58:25;16.47;;;4.73;;
5569;SDS011;2808;51.240;6.794;2024-03-25T02:00:54;24.43;;;3.97;;
5569;SDS011;2808;51.240;6.794;2024-03-25T02:03:24;21.93;;;5.60;;
5569;SDS011;2808;51.240;6.794;2024-03-25T02:05:53;22.37;;;4.50;;
5569;SDS011;2808;51.240;6.794;2024-03-25T02:08:26;23.73;;;4.73;;
5569;SDS011;2808;51.240;6.794;2024-03-25T02:10:54;25.27;;;4.10;;
5569;SDS011;2808;51.240;6.794;2024-03-25T02:13:21;25.67;;;5.00;;
5569;SDS011;2808;51.240;6.794;2024-03-25T02:15:49;15.03;;;4.40;;
5569;SDS011;2808;51.240;6.794;2024-03-25T02:18:24;15.33;;;3.97;;
5569;SDS011;2808;51.240;6.794;2024-03-25T02:20:51;20.63;;;4.70;;
5569;SDS011;2808;51.240;6.794;2024-03-25T02:23:18;26.37;;;5.13;;
5569;SDS011;2808;51.240;6.794;2024-03-25T02:25:49;20.43;;;4.53;;
5569;SDS011;2808;51.240;6.794;2024-03-25T02:28:16;25.73;;;4.57;;
5569;SDS011;2808;51.240;6.794;2024-03-25T02:30:49;22.13;;;4.73;;
5569;SDS011;2808;51.240;6.794;2024-03-25T02:33:25;31.07;;;4.67;;
5569;SDS011;2808;51.240;6.794;2024-03-25T02:36:03;21.63;;;5.00;;
5569;SDS011;2808;51.240;6.794;2024-03-25T02:38:33;32.10;;;5.17;;
5569;SDS011;2808;51.240;6.794;2024-03-25T02:41:04;21.70;;;3.80;;
5569;SDS011;2808;51.240;6.794;2024-03-25T02:43:31;27.43;;;5.27;;
5569;SDS011;2808;51.240;6.794;2024-03-25T02:46:02;25.43;;;5.13;;
5569;SDS011;2808;51.240;6.794;2024-03-25T02:48:29;22.70;;;4.87;;
5569;SDS011;2808;51.240;6.794;2024-03-25T02:51:00;21.77;;;4.43;;
5569;SDS011;2808;51.240;6.794;2024-03-25T02:53:27;26.23;;;4.07;;
5569;SDS011;2808;51.240;6.794;2024-03-25T02:55:59;14.60;;;3.93;;
5569;SDS011;2808;51.240;6.794;2024-03-25T02:58:30;30.13;;;5.20;;
5569;SDS011;2808;51.240;6.794;2024-03-25T03:01:00;19.87;;;4.27;;
5569;SDS011;2808;51.240;6.794;2024-03-25T03:03:29;16.90;;;3.87;;
5569;SDS011;2808;51.240;6.794;2024-03-25T03:05:57;22.17;;;4.30;;
5569;SDS011;2808;51.240;6.794;2024-03-25T03:08:27;22.97;;;4.20;;
5569;SDS011;2808;51.240;6.794;2024-03-25T03:10:57;19.70;;;4.83;;
5569;SDS011;2808;51.240;6.794;2024-03-25T03:13:24;26.73;;;4.67;;
5569;SDS011;2808;51.240;6.794;2024-03-25T03:15:53;14.57;;;4.00;;
5569;SDS011;2808;51.240;6.794;2024-03-25T03:18:19;12.03;;;3.53;;
5569;SDS011;2808;51.240;6.794;2024-03-25T03:20:47;18.60;;;3.70;;
5569;SDS011;2808;51.240;6.794;2024-03-25T03:23:14;21.23;;;4.13;;
5569;SDS011;2808;51.240;6.794;2024-03-25T03:25:42;26.90;;;5.10;;
5569;SDS011;2808;51.240;6.794;2024-03-25T03:28:12;26.70;;;4.80;;
5569;SDS011;2808;51.240;6.794;2024-03-25T03:30:48;21.27;;;4.73;;
5569;SDS011;2808;51.240;6.794;2024-03-25T03:33:17;22.90;;;4.13;;
5569;SDS011;2808;51.240;6.794;2024-03-25T03:35:45;19.43;;;3.80;;
5569;SDS011;2808;51.240;6.794;2024-03-25T03:38:20;20.23;;;4.00;;
5569;SDS011;2808;51.240;6.794;2024-03-25T03:40:55;24.37;;;3.93;;
5569;SDS011;2808;51.240;6.794;2024-03-25T03:43:22;23.37;;;3.80;;
5569;SDS011;2808;51.240;6.794;2024-03-25T03:45:50;23.00;;;5.20;;
5569;SDS011;2808;51.240;6.794;2024-03-25T03:48:21;19.93;;;3.70;;
5569;SDS011;2808;51.240;6.794;2024-03-25T03:50:48;21.07;;;4.07;;
5569;SDS011;2808;51.240;6.794;2024-03-25T03:53:17;21.30;;;4.60;;
5569;SDS011;2808;51.240;6.794;2024-03-25T03:55:53;14.27;;;4.27;;
5569;SDS011;2808;51.240;6.794;2024-03-25T03:58:20;24.30;;;5.00;;
5569;SDS011;2808;51.240;6.794;2024-03-25T04:00:48;20.93;;;4.20;;
5569;SDS011;2808;51.240;6.794;2024-03-25T04:03:15;21.43;;;4.17;;
5569;SDS011;2808;51.240;6.794;2024-03-25T04:05:44;22.77;;;4.53;;
5569;SDS011;2808;51.240;6.794;2024-03-25T04:08:11;24.30;;;3.93;;
5569;SDS011;2808;51.240;6.794;2024-03-25T04:10:38;25.83;;;4.60;;
5569;SDS011;2808;51.240;6.794;2024-03-25T04:13:05;20.50;;;4.60;;
5569;SDS011;2808;51.240;6.794;2024-03-25T04:15:34;18.90;;;5.07;;
5569;SDS011;2808;51.240;6.794;2024-03-25T04:18:02;26.57;;;4.23;;
5569;SDS011;2808;51.240;6.794;2024-03-25T04:20:36;18.03;;;4.03;;
5569;SDS011;2808;51.240;6.794;2024-03-25T04:23:09;21.43;;;4.90;;
5569;SDS011;2808;51.240;6.794;2024-03-25T04:25:35;16.93;;;4.13;;
5569;SDS011;2808;51.240;6.794;2024-03-25T04:28:03;20.20;;;4.20;;
5569;SDS011;2808;51.240;6.794;2024-03-25T04:30:33;18.90;;;4.00;;
5569;SDS011;2808;51.240;6.794;2024-03-25T04:33:04;29.13;;;4.33;;
5569;SDS011;2808;51.240;6.794;2024-03-25T04:35:34;23.13;;;3.80;;
5569;SDS011;2808;51.240;6.794;2024-03-25T04:38:03;14.60;;;3.40;;
5569;SDS011;2808;51.240;6.794;2024-03-25T04:40:31;23.17;;;4.23;;
5569;SDS011;2808;51.240;6.794;2024-03-25T04:42:57;23.03;;;4.10;;
5569;SDS011;2808;51.240;6.794;2024-03-25T04:45:24;25.40;;;4.83;;
5569;SDS011;2808;51.240;6.794;2024-03-25T04:47:53;25.27;;;4.97;;
5569;SDS011;2808;51.240;6.794;2024-03-25T04:50:20;25.67;;;5.30;;
5569;SDS011;2808;51.240;6.794;2024-03-25T04:52:47;21.23;;;5.00;;
5569;SDS011;2808;51.240;6.794;2024-03-25T04:55:14;27.53;;;4.53;;
5569;SDS011;2808;51.240;6.794;2024-03-25T04:57:42;21.17;;;4.17;;
5569;SDS011;2808;51.240;6.794;2024-03-25T05:00:09;22.67;;;4.37;;
5569;SDS011;2808;51.240;6.794;2024-03-25T05:02:36;26.73;;;5.17;;
5569;SDS011;2808;51.240;6.794;2024-03-25T05:05:03;23.77;;;4.20;;
5569;SDS011;2808;51.240;6.794;2024-03-25T05:07:30;27.80;;;4.57;;
5569;SDS011;2808;51.240;6.794;2024-03-25T05:09:57;30.93;;;5.50;;
5569;SDS011;2808;51.240;6.794;2024-03-25T05:12:28;24.00;;;4.47;;
5569;SDS011;2808;51.240;6.794;2024-03-25T05:14:57;29.67;;;4.43;;
5569;SDS011;2808;51.240;6.794;2024-03-25T05:17:26;19.37;;;4.70;;
5569;SDS011;2808;51.240;6.794;2024-03-25T05:19:53;26.03;;;4.50;;
5569;SDS011;2808;51.240;6.794;2024-03-25T05:22:19;26.87;;;4.30;;
5569;SDS011;2808;51.240;6.794;2024-03-25T05:24:49;23.63;;;5.03;;
5569;SDS011;2808;51.240;6.794;2024-03-25T05:27:16;21.97;;;5.07;;
5569;SDS011;2808;51.240;6.794;2024-03-25T05:29:42;28.13;;;4.80;;
5569;SDS011;2808;51.240;6.794;2024-03-25T05:32:10;26.03;;;4.87;;
5569;SDS011;2808;51.240;6.794;2024-03-25T05:34:37;26.40;;;5.40;;
5569;SDS011;2808;51.240;6.794;2024-03-25T05:37:03;26.90;;;5.80;;
5569;SDS011;2808;51.240;6.794;2024-03-25T05:39:30;26.80;;;5.27;;
5569;SDS011;2808;51.240;6.794;2024-03-25T05:41:57;23.57;;;4.60;;
5569;SDS011;2808;51.240;6.794;2024-03-25T05:44:26;23.93;;;5.37;;
5569;SDS011;2808;51.240;6.794;2024-03-25T05:46:53;25.03;;;5.30;;
5569;SDS011;2808;51.240;6.794;2024-03-25T05:49:29;25.83;;;5.77;;
5569;SDS011;2808;51.240;6.794;2024-03-25T05:51:55;36.80;;;5.33;;
5569;SDS011;2808;51.240;6.794;2024-03-25T05:54:22;35.60;;;5.63;;
5569;SDS011;2808;51.240;6.794;2024-03-25T05:56:52;27.17;;;5.47;;
5569;SDS011;2808;51.240;6.794;2024-03-25T05:59:28;20.50;;;5.43;;
5569;SDS011;2808;51.240;6.794;2024-03-25T06:02:04;27.73;;;5.07;;
5569;SDS011;2808;51.240;6.794;2024-03-25T06:04:32;23.23;;;7.00;;
5569;SDS011;2808;51.240;6.794;2024-03-25T06:07:03;29.43;;;6.20;;
5569;SDS011;2808;51.240;6.794;2024-03-25T06:09:30;20.53;;;5.10;;
5569;SDS011;2808;51.240;6.794;2024-03-25T06:11:59;23.57;;;5.13;;
5569;SDS011;2808;51.240;6.794;2024-03-25T06:14:26;24.60;;;5.80;;
5569;SDS011;2808;51.240;6.794;2024-03-25T06:16:52;19.03;;;5.37;;
5569;SDS011;2808;51.240;6.794;2024-03-25T06:19:19;31.50;;;5.70;;
5569;SDS011;2808;51.240;6.794;2024-03-25T06:21:47;21.73;;;5.57;;
5569;SDS011;2808;51.240;6.794;2024-03-25T06:24:13;26.57;;;6.20;;
5569;SDS011;2808;51.240;6.794;2024-03-25T06:26:46;25.40;;;6.53;;
5569;SDS011;2808;51.240;6.794;2024-03-25T06:29:15;27.80;;;6.40;;
5569;SDS011;2808;51.240;6.794;2024-03-25T06:31:42;17.63;;;5.60;;
5569;SDS011;2808;51.240;6.794;2024-03-25T06:34:27;21.00;;;5.77;;
5569;SDS011;2808;51.240;6.794;2024-03-25T06:37:10;19.27;;;6.53;;
5569;SDS011;2808;51.240;6.794;2024-03-25T06:39:38;24.07;;;6.17;;
5569;SDS011;2808;51.240;6.794;2024-03-25T06:42:05;22.57;;;5.93;;
5569;SDS011;2808;51.240;6.794;2024-03-25T06:44:37;18.30;;;6.10;;
5569;SDS011;2808;51.240;6.794;2024-03-25T06:47:06;23.10;;;6.50;;
5569;SDS011;2808;51.240;6.794;2024-03-25T06:49:33;25.23;;;5.73;;
5569;SDS011;2808;51.240;6.794;2024-03-25T06:52:01;24.20;;;6.27;;
5569;SDS011;2808;51.240;6.794;2024-03-25T06:54:34;20.73;;;5.60;;
5569;SDS011;2808;51.240;6.794;2024-03-25T06:57:01;24.30;;;5.90;;
5569;SDS011;2808;51.240;6.794;2024-03-25T06:59:28;29.20;;;6.40;;
5569;SDS011;2808;51.240;6.794;2024-03-25T07:01:55;26.30;;;6.70;;
5569;SDS011;2808;51.240;6.794;2024-03-25T07:07:31;22.33;;;6.13;;
5569;SDS011;2808;51.240;6.794;2024-03-25T07:10:11;32.53;;;6.73;;
5569;SDS011;2808;51.240;6.794;2024-03-25T07:19:30;17.90;;;5.93;;
5569;SDS011;2808;51.240;6.794;2024-03-25T07:22:26;19.90;;;6.00;;
5569;SDS011;2808;51.240;6.794;2024-03-25T07:35:31;26.30;;;5.80;;
5569;SDS011;2808;51.240;6.794;2024-03-25T07:41:36;21.43;;;5.37;;
5569;SDS011;2808;51.240;6.794;2024-03-25T07:44:03;22.17;;;5.77;;
5569;SDS011;2808;51.240;6.794;2024-03-25T07:46:33;32.23;;;5.50;;
5569;SDS011;2808;51.240;6.794;2024-03-25T07:48:59;23.33;;;5.60;;
5569;SDS011;2808;51.240;6.794;2024-03-25T07:51:28;24.03;;;4.90;;
5569;SDS011;2808;51.240;6.794;2024-03-25T09:04:26;16.30;;;3.97;;
5569;SDS011;2808;51.240;6.794;2024-03-25T09:10:05;16.10;;;3.70;;
5569;SDS011;2808;51.240;6.794;2024-03-25T09:12:53;16.40;;;2.80;;
5569;SDS011;2808;51.240;6.794;2024-03-25T09:15:21;21.50;;;3.93;;
5569;SDS011;2808;51.240;6.794;2024-03-25T09:21:26;13.37;;;2.83;;
5569;SDS011;2808;51.240;6.794;2024-03-25T09:27:21;18.40;;;3.80;;
5569;SDS011;2808;51.240;6.794;2024-03-25T09:29:51;14.47;;;3.80;;
5569;SDS011;2808;51.240;6.794;2024-03-25T09:32:20;21.07;;;3.40;;
5569;SDS011;2808;51.240;6.794;2024-03-25T09:34:47;23.10;;;4.50;;
5569;SDS011;2808;51.240;6.794;2024-03-25T09:37:41;13.20;;;3.10;;
5569;SDS011;2808;51.240;6.794;2024-03-25T09:46:48;18.03;;;3.20;;
5569;SDS011;2808;51.240;6.794;2024-03-25T09:49:22;11.67;;;2.60;;
5569;SDS011;2808;51.240;6.794;2024-03-25T09:56:28;17.63;;;3.40;;
5569;SDS011;2808;51.240;6.794;2024-03-25T09:59:02;20.13;;;4.70;;
5569;SDS011;2808;51.240;6.794;2024-03-25T10:01:29;16.30;;;3.80;;
5569;SDS011;2808;51.240;6.794;2024-03-25T10:04:01;16.43;;;3.77;;
5569;SDS011;2808;51.240;6.794;2024-03-25T10:06:51;19.40;;;4.80;;
5569;SDS011;2808;51.240;6.794;2024-03-25T10:09:21;18.03;;;3.80;;
5569;SDS011;2808;51.240;6.794;2024-03-25T10:11:50;11.97;;;4.03;;
5569;SDS011;2808;51.240;6.794;2024-03-25T10:14:17;17.70;;;4.50;;
5569;SDS011;2808;51.240;6.794;2024-03-25T10:16:51;17.03;;;4.63;;
5569;SDS011;2808;51.240;6.794;2024-03-25T10:19:20;21.50;;;4.83;;
5569;SDS011;2808;51.240;6.794;2024-03-25T10:22:13;14.27;;;4.60;;
5569;SDS011;2808;51.240;6.794;2024-03-25T10:24:42;19.20;;;4.23;;
5569;SDS011;2808;51.240;6.794;2024-03-25T10:27:25;11.97;;;4.13;;
5569;SDS011;2808;51.240;6.794;2024-03-25T10:29:53;17.20;;;4.97;;
5569;SDS011;2808;51.240;6.794;2024-03-25T10:32:22;17.40;;;4.47;;
5569;SDS011;2808;51.240;6.794;2024-03-25T10:34:49;19.07;;;4.63;;
5569;SDS011;2808;51.240;6.794;2024-03-25T10:37:16;15.80;;;4.43;;
5569;SDS011;2808;51.240;6.794;2024-03-25T10:39:57;11.90;;;3.80;;
5569;SDS011;2808;51.240;6.794;2024-03-25T10:42:28;25.03;;;4.77;;
5569;SDS011;2808;51.240;6.794;2024-03-25T10:44:56;18.33;;;4.73;;
5569;SDS011;2808;51.240;6.794;2024-03-25T10:47:23;17.37;;;3.90;;
5569;SDS011;2808;51.240;6.794;2024-03-25T10:49:55;10.40;;;3.77;;
5569;SDS011;2808;51.240;6.794;2024-03-25T10:52:26;16.63;;;3.97;;
5569;SDS011;2808;51.240;6.794;2024-03-25T10:55:09;13.93;;;4.27;;
5569;SDS011;2808;51.240;6.794;2024-03-25T10:57:38;18.53;;;4.47;;
5569;SDS011;2808;51.240;6.794;2024-03-25T11:00:06;16.07;;;4.40;;
5569;SDS011;2808;51.240;6.794;2024-03-25T11:02:42;21.23;;;4.93;;
5569;SDS011;2808;51.240;6.794;2024-03-25T11:05:12;16.03;;;4.60;;
5569;SDS011;2808;51.240;6.794;2024-03-25T11:07:39;16.83;;;4.43;;
5569;SDS011;2808;51.240;6.794;2024-03-25T11:10:09;15.57;;;4.87;;
5569;SDS011;2808;51.240;6.794;2024-03-25T11:12:40;18.67;;;4.93;;
5569;SDS011;2808;51.240;6.794;2024-03-25T11:15:10;17.57;;;5.30;;
5569;SDS011;2808;51.240;6.794;2024-03-25T11:17:50;17.43;;;4.93;;
5569;SDS011;2808;51.240;6.794;2024-03-25T11:20:19;13.97;;;4.30;;
5569;SDS011;2808;51.240;6.794;2024-03-25T11:22:49;17.10;;;4.20;;
5569;SDS011;2808;51.240;6.794;2024-03-25T11:25:21;14.20;;;4.10;;
5569;SDS011;2808;51.240;6.794;2024-03-25T11:27:50;14.43;;;4.40;;
5569;SDS011;2808;51.240;6.794;2024-03-25T11:30:17;14.20;;;3.97;;
5569;SDS011;2808;51.240;6.794;2024-03-25T11:32:44;10.90;;;4.03;;
5569;SDS011;2808;51.240;6.794;2024-03-25T11:45:34;15.03;;;4.50;;
5569;SDS011;2808;51.240;6.794;2024-03-25T12:01:58;10.60;;;2.97;;
5569;SDS011;2808;51.240;6.794;2024-03-25T12:04:28;17.13;;;4.13;;
5569;SDS011;2808;51.240;6.794;2024-03-25T12:07:34;22.17;;;3.90;;
5569;SDS011;2808;51.240;6.794;2024-03-25T13:16:00;8.00;;;2.43;;
5569;SDS011;2808;51.240;6.794;2024-03-25T13:18:26;12.30;;;3.07;;
5569;SDS011;2808;51.240;6.794;2024-03-25T13:22:35;10.57;;;2.87;;
5569;SDS011;2808;51.240;6.794;2024-03-25T13:24:23;9.47;;;2.37;;
5569;SDS011;2808;51.240;6.794;2024-03-25T13:26:59;13.03;;;2.87;;
5569;SDS011;2808;51.240;6.794;2024-03-25T13:29:48;9.27;;;3.30;;
5569;SDS011;2808;51.240;6.794;2024-03-25T13:42:02;11.10;;;2.13;;
5569;SDS011;2808;51.240;6.794;2024-03-25T13:44:29;8.60;;;1.70;;
5569;SDS011;2808;51.240;6.794;2024-03-25T13:47:04;6.73;;;2.27;;
5569;SDS011;2808;51.240;6.794;2024-03-25T13:49:54;9.13;;;2.37;;
5569;SDS011;2808;51.240;6.794;2024-03-25T13:52:41;7.60;;;2.10;;
5569;SDS011;2808;51.240;6.794;2024-03-25T13:55:17;7.67;;;2.23;;
5569;SDS011;2808;51.240;6.794;2024-03-25T13:57:55;8.33;;;2.03;;
5569;SDS011;2808;51.240;6.794;2024-03-25T14:00:22;5.47;;;1.87;;
5569;SDS011;2808;51.240;6.794;2024-03-25T14:03:05;11.43;;;2.67;;
5569;SDS011;2808;51.240;6.794;2024-03-25T14:19:03;8.87;;;1.83;;
5569;SDS011;2808;51.240;6.794;2024-03-25T14:21:31;12.10;;;2.00;;
5569;SDS011;2808;51.240;6.794;2024-03-25T14:24:07;6.87;;;2.10;;
5569;SDS011;2808;51.240;6.794;2024-03-25T14:26:34;11.00;;;1.90;;
5569;SDS011;2808;51.240;6.794;2024-03-25T14:29:07;5.13;;;2.00;;
5569;SDS011;2808;51.240;6.794;2024-03-25T14:31:34;8.60;;;2.20;;
5569;SDS011;2808;51.240;6.794;2024-03-25T14:34:02;8.73;;;2.10;;
5569;SDS011;2808;51.240;6.794;2024-03-25T14:36:35;11.60;;;2.13;;
5569;SDS011;2808;51.240;6.794;2024-03-25T14:39:12;5.83;;;2.27;;
5569;SDS011;2808;51.240;6.794;2024-03-25T14:41:42;6.27;;;2.47;;
5569;SDS011;2808;51.240;6.794;2024-03-25T14:44:09;7.63;;;1.80;;
5569;SDS011;2808;51.240;6.794;2024-03-25T14:46:36;7.57;;;2.07;;
5569;SDS011;2808;51.240;6.794;2024-03-25T14:51:57;9.53;;;2.00;;
5569;SDS011;2808;51.240;6.794;2024-03-25T14:54:33;13.83;;;2.10;;
5569;SDS011;2808;51.240;6.794;2024-03-25T14:57:07;5.50;;;1.97;;
5569;SDS011;2808;51.240;6.794;2024-03-25T14:59:42;11.60;;;2.37;;
5569;SDS011;2808;51.240;6.794;2024-03-25T15:02:09;6.70;;;1.90;;
5569;SDS011;2808;51.240;6.794;2024-03-25T15:07:29;8.40;;;1.83;;
5569;SDS011;2808;51.240;6.794;2024-03-25T15:11:19;9.40;;;1.97;;
5569;SDS011;2808;51.240;6.794;2024-03-25T15:13:23;8.33;;;2.23;;
5569;SDS011;2808;51.240;6.794;2024-03-25T15:39:42;7.10;;;1.80;;
5569;SDS011;2808;51.240;6.794;2024-03-25T15:45:01;9.27;;;2.00;;
5569;SDS011;2808;51.240;6.794;2024-03-25T15:47:28;6.40;;;1.83;;
5569;SDS011;2808;51.240;6.794;2024-03-25T15:50:07;17.13;;;2.20;;
5569;SDS011;2808;51.240;6.794;2024-03-25T15:55:57;11.87;;;1.80;;
5569;SDS011;2808;51.240;6.794;2024-03-25T15:58:32;3.97;;;1.50;;
5569;SDS011;2808;51.240;6.794;2024-03-25T16:01:02;10.40;;;1.77;;
5569;SDS011;2808;51.240;6.794;2024-03-25T16:30:07;6.77;;;2.20;;
5569;SDS011;2808;51.240;6.794;2024-03-25T16:32:37;5.60;;;1.60;;
5569;SDS011;2808;51.240;6.794;2024-03-25T16:35:04;7.23;;;1.80;;
5569;SDS011;2808;51.240;6.794;2024-03-25T16:37:31;11.73;;;1.80;;
5569;SDS011;2808;51.240;6.794;2024-03-25T16:39:58;6.20;;;1.30;;
5569;SDS011;2808;51.240;6.794;2024-03-25T16:42:30;4.37;;;1.33;;
5569;SDS011;2808;51.240;6.794;2024-03-25T16:45:05;7.57;;;1.63;;
5569;SDS011;2808;51.240;6.794;2024-03-25T16:47:49;6.73;;;1.77;;
5569;SDS011;2808;51.240;6.794;2024-03-25T16:50:21;6.53;;;1.87;;
5569;SDS011;2808;51.240;6.794;2024-03-25T16:52:48;14.33;;;1.90;;
5569;SDS011;2808;51.240;6.794;2024-03-25T16:55:30;6.80;;;1.40;;
5569;SDS011;2808;51.240;6.794;2024-03-25T16:58:01;7.40;;;1.70;;
5569;SDS011;2808;51.240;6.794;2024-03-25T17:00:44;7.27;;;1.70;;
5569;SDS011;2808;51.240;6.794;2024-03-25T17:03:20;6.80;;;1.87;;
5569;SDS011;2808;51.240;6.794;2024-03-25T17:05:49;6.33;;;1.40;;
5569;SDS011;2808;51.240;6.794;2024-03-25T17:08:19;5.23;;;1.77;;
5569;SDS011;2808;51.240;6.794;2024-03-25T17:10:46;5.00;;;1.40;;
5569;SDS011;2808;51.240;6.794;2024-03-25T17:13:13;8.87;;;1.87;;
5569;SDS011;2808;51.240;6.794;2024-03-25T17:15:40;4.70;;;1.40;;
5569;SDS011;2808;51.240;6.794;2024-03-25T17:18:11;7.00;;;1.40;;
5569;SDS011;2808;51.240;6.794;2024-03-25T17:20:39;5.83;;;1.50;;
5569;SDS011;2808;51.240;6.794;2024-03-25T17:23:06;7.73;;;1.50;;
5569;SDS011;2808;51.240;6.794;2024-03-25T17:25:36;6.13;;;1.40;;
5569;SDS011;2808;51.240;6.794;2024-03-25T17:28:03;4.60;;;1.50;;
5569;SDS011;2808;51.240;6.794;2024-03-25T17:30:32;5.63;;;1.73;;
5569;SDS011;2808;51.240;6.794;2024-03-25T17:36:06;7.30;;;1.80;;
5569;SDS011;2808;51.240;6.794;2024-03-25T17:38:39;5.93;;;1.70;;
5569;SDS011;2808;51.240;6.794;2024-03-25T17:41:17;9.33;;;1.97;;
5569;SDS011;2808;51.240;6.794;2024-03-25T17:43:56;6.03;;;1.40;;
5569;SDS011;2808;51.240;6.794;2024-03-25T17:47:04;8.63;;;1.60;;
5569;SDS011;2808;51.240;6.794;2024-03-25T18:12:32;7.27;;;1.63;;
5569;SDS011;2808;51.240;6.794;2024-03-25T18:15:28;6.73;;;1.87;;
5569;SDS011;2808;51.240;6.794;2024-03-25T18:18:32;8.17;;;1.90;;
5569;SDS011;2808;51.240;6.794;2024-03-25T18:21:31;8.67;;;1.83;;
5569;SDS011;2808;51.240;6.794;2024-03-25T18:33:28;4.70;;;1.40;;
5569;SDS011;2808;51.240;6.794;2024-03-25T18:36:07;6.73;;;1.53;;
5569;SDS011;2808;51.240;6.794;2024-03-25T18:38:54;5.80;;;1.53;;
5569;SDS011;2808;51.240;6.794;2024-03-25T18:42:15;10.00;;;1.57;;
5569;SDS011;2808;51.240;6.794;2024-03-25T18:44:53;8.30;;;1.70;;
5569;SDS011;2808;51.240;6.794;2024-03-25T18:47:27;6.67;;;2.20;;
5569;SDS011;2808;51.240;6.794;2024-03-25T18:49:56;7.87;;;2.30;;
5569;SDS011;2808;51.240;6.794;2024-03-25T18:52:22;10.50;;;1.63;;
5569;SDS011;2808;51.240;6.794;2024-03-25T18:54:49;7.83;;;1.60;;
5569;SDS011;2808;51.240;6.794;2024-03-25T18:57:19;8.77;;;1.53;;
5569;SDS011;2808;51.240;6.794;2024-03-25T18:59:49;6.67;;;1.60;;
5569;SDS011;2808;51.240;6.794;2024-03-25T19:02:19;5.83;;;1.67;;
5569;SDS011;2808;51.240;6.794;2024-03-25T19:04:47;7.20;;;1.50;;
5569;SDS011;2808;51.240;6.794;2024-03-25T19:07:14;15.67;;;2.20;;
5569;SDS011;2808;51.240;6.794;2024-03-25T19:09:41;8.73;;;1.70;;
5569;SDS011;2808;51.240;6.794;2024-03-25T19:12:08;12.03;;;1.87;;
5569;SDS011;2808;51.240;6.794;2024-03-25T19:14:42;8.53;;;2.77;;
5569;SDS011;2808;51.240;6.794;2024-03-25T19:17:11;11.00;;;1.70;;
5569;SDS011;2808;51.240;6.794;2024-03-25T19:19:41;10.80;;;2.37;;
5569;SDS011;2808;51.240;6.794;2024-03-25T19:22:14;9.97;;;1.83;;
5569;SDS011;2808;51.240;6.794;2024-03-25T19:24:47;7.97;;;2.50;;
5569;SDS011;2808;51.240;6.794;2024-03-25T19:27:14;8.80;;;2.33;;
5569;SDS011;2808;51.240;6.794;2024-03-25T19:29:47;11.83;;;2.70;;
5569;SDS011;2808;51.240;6.794;2024-03-25T19:32:13;7.33;;;2.13;;
5569;SDS011;2808;51.240;6.794;2024-03-25T19:34:40;7.53;;;2.27;;
5569;SDS011;2808;51.240;6.794;2024-03-25T19:37:07;11.30;;;2.40;;
5569;SDS011;2808;51.240;6.794;2024-03-25T19:39:35;12.27;;;2.30;;
5569;SDS011;2808;51.240;6.794;2024-03-25T19:42:01;12.50;;;2.40;;
5569;SDS011;2808;51.240;6.794;2024-03-25T19:44:28;9.67;;;2.50;;
5569;SDS011;2808;51.240;6.794;2024-03-25T19:46:55;8.60;;;2.40;;
5569;SDS011;2808;51.240;6.794;2024-03-25T19:49:21;10.63;;;2.50;;
5569;SDS011;2808;51.240;6.794;2024-03-25T19:51:48;9.73;;;1.93;;
5569;SDS011;2808;51.240;6.794;2024-03-25T19:54:15;7.80;;;2.30;;
5569;SDS011;2808;51.240;6.794;2024-03-25T19:56:42;7.90;;;1.90;;
5569;SDS011;2808;51.240;6.794;2024-03-25T19:59:09;10.33;;;2.27;;
5569;SDS011;2808;51.240;6.794;2024-03-25T20:01:36;7.80;;;2.10;;
5569;SDS011;2808;51.240;6.794;2024-03-25T20:04:08;11.20;;;2.40;;
5569;SDS011;2808;51.240;6.794;2024-03-25T20:06:34;8.33;;;2.50;;
5569;SDS011;2808;51.240;6.794;2024-03-25T20:09:01;9.50;;;1.97;;
5569;SDS011;2808;51.240;6.794;2024-03-25T20:11:28;9.77;;;2.33;;
5569;SDS011;2808;51.240;6.794;2024-03-25T20:13:56;6.40;;;1.90;;
5569;SDS011;2808;51.240;6.794;2024-03-25T20:16:25;8.27;;;1.80;;
5569;SDS011;2808;51.240;6.794;2024-03-25T20:18:51;8.33;;;1.93;;
5569;SDS011;2808;51.240;6.794;2024-03-25T20:21:18;8.57;;;2.33;;
5569;SDS011;2808;51.240;6.794;2024-03-25T20:23:45;9.93;;;2.30;;
5569;SDS011;2808;51.240;6.794;2024-03-25T20:26:11;10.67;;;2.43;;
5569;SDS011;2808;51.240;6.794;2024-03-25T20:28:38;7.43;;;2.07;;
5569;SDS011;2808;51.240;6.794;2024-03-25T20:31:05;12.93;;;2.50;;
5569;SDS011;2808;51.240;6.794;2024-03-25T20:33:32;6.80;;;2.03;;
5569;SDS011;2808;51.240;6.794;2024-03-25T20:36:02;8.33;;;2.10;;
5569;SDS011;2808;51.240;6.794;2024-03-25T20:38:29;8.83;;;2.87;;
5569;SDS011;2808;51.240;6.794;2024-03-25T20:40:55;8.00;;;2.20;;
5569;SDS011;2808;51.240;6.794;2024-03-25T20:43:22;8.40;;;2.17;;
5569;SDS011;2808;51.240;6.794;2024-03-25T20:45:49;11.00;;;2.87;;
5569;SDS011;2808;51.240;6.794;2024-03-25T20:48:17;8.97;;;2.10;;
5569;SDS011;2808;51.240;6.794;2024-03-25T20:50:47;12.50;;;2.60;;
5569;SDS011;2808;51.240;6.794;2024-03-25T20:53:16;8.57;;;2.27;;
5569;SDS011;2808;51.240;6.794;2024-03-25T20:55:43;10.80;;;2.40;;
5569;SDS011;2808;51.240;6.794;2024-03-25T20:58:09;9.73;;;2.07;;
5569;SDS011;2808;51.240;6.794;2024-03-25T21:00:36;9.97;;;2.10;;
5569;SDS011;2808;51.240;6.794;2024-03-25T21:03:03;7.70;;;2.00;;
5569;SDS011;2808;51.240;6.794;2024-03-25T21:05:31;11.60;;;2.07;;
5569;SDS011;2808;51.240;6.794;2024-03-25T21:07:57;6.70;;;2.00;;
5569;SDS011;2808;51.240;6.794;2024-03-25T21:10:24;7.63;;;1.80;;
5569;SDS011;2808;51.240;6.794;2024-03-25T21:12:50;5.83;;;2.03;;
5569;SDS011;2808;51.240;6.794;2024-03-25T21:15:17;6.77;;;1.70;;